createdAt,value
2019-03-04T00:00:42.525Z,10.20
2019-03-04T00:01:25.285Z,10.20
2019-03-04T00:02:02.731Z,10.20
2019-03-04T00:02:40.984Z,10.10
2019-03-04T00:03:18.432Z,10.20
2019-03-04T00:03:56.362Z,10.10
2019-03-04T00:04:34.193Z,10.10
2019-03-04T00:05:12.425Z,10.10
2019-03-04T00:05:49.982Z,10.10
2019-03-04T00:06:27.562Z,10.10
2019-03-04T00:07:05.049Z,10.10
2019-03-04T00:07:42.711Z,10.10
2019-03-04T00:08:20.316Z,10.10
2019-03-04T00:08:57.520Z,10.10
2019-03-04T00:09:34.954Z,10.10
2019-03-04T00:10:13.027Z,10.10
2019-03-04T00:10:50.979Z,10.10
2019-03-04T00:11:30.566Z,10.10
2019-03-04T00:12:08.406Z,10.10
2019-03-04T00:12:47.411Z,10.10
2019-03-04T00:13:25.940Z,10.10
2019-03-04T00:14:03.496Z,10.10
2019-03-04T00:14:40.576Z,10.00
2019-03-04T00:15:18.282Z,10.10
2019-03-04T00:15:56.086Z,10.00
2019-03-04T00:16:38.314Z,10.00
2019-03-04T00:17:15.664Z,10.00
2019-03-04T00:17:52.140Z,10.00
2019-03-04T00:18:29.794Z,10.00
2019-03-04T00:19:07.584Z,10.00
2019-03-04T00:19:45.574Z,10.00
2019-03-04T00:20:23.016Z,10.00
2019-03-04T00:21:01.039Z,10.00
2019-03-04T00:21:39.476Z,10.00
2019-03-04T00:22:17.145Z,10.00
2019-03-04T00:22:54.600Z,10.00
2019-03-04T00:23:31.761Z,10.00
2019-03-04T00:24:09.475Z,10.00
2019-03-04T00:24:47.268Z,10.00
2019-03-04T00:25:25.086Z,10.00
2019-03-04T00:26:03.120Z,10.00
2019-03-04T00:26:40.926Z,10.00
2019-03-04T00:27:18.406Z,10.00
2019-03-04T00:27:55.536Z,10.00
2019-03-04T00:28:32.990Z,10.00
2019-03-04T00:29:10.579Z,10.00
2019-03-04T00:29:48.428Z,10.10
2019-03-04T00:30:25.804Z,10.10
2019-03-04T00:31:03.583Z,10.10
2019-03-04T00:31:41.579Z,10.10
2019-03-04T00:32:19.342Z,10.10
2019-03-04T00:32:56.714Z,10.10
2019-03-04T00:33:34.379Z,10.10
2019-03-04T00:34:12.024Z,10.10
2019-03-04T00:34:49.779Z,10.10
2019-03-04T00:35:27.840Z,10.10
2019-03-04T00:36:05.135Z,10.10
2019-03-04T00:36:41.896Z,10.00
2019-03-04T00:37:19.924Z,10.00
2019-03-04T00:37:57.570Z,10.10
2019-03-04T00:38:35.360Z,10.00
2019-03-04T00:39:12.864Z,10.00
2019-03-04T00:39:50.749Z,10.00
2019-03-04T00:40:28.119Z,10.00
2019-03-04T00:41:05.552Z,10.00
2019-03-04T00:41:43.022Z,10.00
2019-03-04T00:42:20.862Z,10.00
2019-03-04T00:42:58.422Z,10.00
2019-03-04T00:43:36.032Z,10.00
2019-03-04T00:44:13.685Z,10.00
2019-03-04T00:44:51.475Z,10.00
2019-03-04T00:45:29.563Z,10.00
2019-03-04T00:46:07.554Z,10.00
2019-03-04T00:46:45.360Z,10.00
2019-03-04T00:47:22.819Z,10.00
2019-03-04T00:48:00.675Z,10.00
2019-03-04T00:48:38.527Z,10.00
2019-03-04T00:49:15.883Z,10.00
2019-03-04T00:49:53.040Z,10.10
2019-03-04T00:50:30.520Z,10.10
2019-03-04T00:51:08.668Z,10.10
2019-03-04T00:51:46.649Z,10.10
2019-03-04T00:52:23.704Z,10.10
2019-03-04T00:53:01.375Z,10.10
2019-03-04T00:53:38.874Z,10.10
2019-03-04T00:54:16.744Z,10.10
2019-03-04T00:54:54.114Z,10.10
2019-03-04T00:55:32.530Z,10.10
2019-03-04T00:56:18.010Z,10.10
2019-03-04T00:56:55.545Z,10.10
2019-03-04T00:57:33.659Z,10.10
2019-03-04T00:58:11.027Z,10.10
2019-03-04T00:58:48.496Z,10.10
2019-03-04T00:59:26.585Z,10.10
2019-03-04T01:00:05.192Z,10.10
2019-03-04T01:00:42.792Z,10.10
2019-03-04T01:01:20.564Z,10.10
2019-03-04T01:01:58.316Z,10.10
2019-03-04T01:02:36.208Z,10.10
2019-03-04T01:03:13.775Z,10.10
2019-03-04T01:03:50.573Z,10.10
2019-03-04T01:04:28.158Z,10.10
2019-03-04T01:05:06.382Z,10.10
2019-03-04T01:05:44.304Z,10.10
2019-03-04T01:06:21.769Z,10.10
2019-03-04T01:07:10.076Z,10.10
2019-03-04T01:07:48.395Z,10.10
2019-03-04T01:08:27.403Z,10.10
2019-03-04T01:09:08.087Z,10.10
2019-03-04T01:09:45.989Z,10.10
2019-03-04T01:10:23.596Z,10.10
2019-03-04T01:11:00.788Z,10.10
2019-03-04T01:11:38.890Z,10.10
2019-03-04T01:12:16.608Z,10.10
2019-03-04T01:13:13.184Z,10.10
2019-03-04T01:13:50.904Z,10.10
2019-03-04T01:14:28.950Z,10.10
2019-03-04T01:15:08.170Z,10.00
2019-03-04T01:15:45.890Z,10.00
2019-03-04T01:16:23.552Z,10.00
2019-03-04T01:17:01.598Z,10.00
2019-03-04T01:17:39.446Z,10.00
2019-03-04T01:18:17.456Z,10.00
2019-03-04T01:18:55.286Z,10.00
2019-03-04T01:19:32.922Z,10.00
2019-03-04T01:20:12.396Z,10.00
2019-03-04T01:20:49.672Z,10.00
2019-03-04T01:21:27.671Z,10.00
2019-03-04T01:22:05.574Z,10.00
2019-03-04T01:23:01.882Z,10.00
2019-03-04T01:23:39.708Z,10.10
2019-03-04T01:24:17.791Z,10.00
2019-03-04T01:24:55.301Z,10.10
2019-03-04T01:25:32.122Z,10.00
2019-03-04T01:26:09.370Z,10.00
2019-03-04T01:26:47.183Z,10.00
2019-03-04T01:27:25.341Z,10.00
2019-03-04T01:28:03.388Z,10.00
2019-03-04T01:28:41.141Z,10.00
2019-03-04T01:29:19.060Z,10.10
2019-03-04T01:29:56.792Z,10.00
2019-03-04T01:30:34.688Z,10.00
2019-03-04T01:31:12.808Z,10.00
2019-03-04T01:31:50.828Z,10.00
2019-03-04T01:32:27.983Z,10.00
2019-03-04T01:33:05.482Z,10.00
2019-03-04T01:33:42.930Z,10.00
2019-03-04T01:34:20.580Z,10.00
2019-03-04T01:34:58.324Z,10.00
2019-03-04T01:35:36.370Z,10.00
2019-03-04T01:36:13.982Z,10.00
2019-03-04T01:36:51.724Z,10.00
2019-03-04T01:37:29.331Z,10.00
2019-03-04T01:38:07.237Z,10.00
2019-03-04T01:38:44.476Z,10.00
2019-03-04T01:39:21.977Z,10.00
2019-03-04T01:39:59.432Z,10.00
2019-03-04T01:40:37.174Z,10.00
2019-03-04T01:41:14.752Z,10.00
2019-03-04T01:41:52.330Z,10.00
2019-03-04T01:42:30.390Z,10.00
2019-03-04T01:43:08.256Z,10.00
2019-03-04T01:43:46.246Z,10.00
2019-03-04T01:44:22.996Z,10.00
2019-03-04T01:45:00.732Z,10.00
2019-03-04T01:45:38.170Z,10.00
2019-03-04T01:46:16.976Z,10.00
2019-03-04T01:46:54.470Z,10.00
2019-03-04T01:47:32.088Z,10.00
2019-03-04T01:48:09.309Z,10.00
2019-03-04T01:48:46.309Z,10.00
2019-03-04T01:49:23.756Z,10.00
2019-03-04T01:50:01.377Z,10.00
2019-03-04T01:50:39.441Z,10.00
2019-03-04T01:51:17.376Z,10.00
2019-03-04T01:51:54.620Z,10.00
2019-03-04T01:52:32.413Z,10.00
2019-03-04T01:53:09.801Z,10.00
2019-03-04T01:53:47.634Z,10.00
2019-03-04T01:54:25.466Z,10.00
2019-03-04T01:55:03.221Z,10.00
2019-03-04T01:55:41.469Z,10.00
2019-03-04T01:56:18.996Z,10.00
2019-03-04T01:56:56.401Z,10.00
2019-03-04T01:57:34.320Z,10.00
2019-03-04T01:58:11.966Z,10.00
2019-03-04T01:58:49.823Z,10.00
2019-03-04T01:59:27.948Z,10.00
2019-03-04T02:00:06.336Z,10.00
2019-03-04T02:00:44.039Z,10.00
2019-03-04T02:01:20.798Z,10.00
2019-03-04T02:02:17.099Z,10.00
2019-03-04T02:02:55.057Z,10.00
2019-03-04T02:03:32.468Z,10.00
2019-03-04T02:04:10.297Z,10.00
2019-03-04T02:04:48.014Z,10.00
2019-03-04T02:05:25.844Z,10.00
2019-03-04T02:06:03.121Z,10.00
2019-03-04T02:06:41.232Z,10.00
2019-03-04T02:07:18.701Z,10.10
2019-03-04T02:07:55.842Z,10.00
2019-03-04T02:08:33.268Z,10.10
2019-03-04T02:09:10.759Z,10.10
2019-03-04T02:09:48.228Z,10.10
2019-03-04T02:10:25.712Z,10.10
2019-03-04T02:11:03.260Z,10.10
2019-03-04T02:11:40.975Z,10.10
2019-03-04T02:12:18.978Z,10.00
2019-03-04T02:12:57.948Z,10.00
2019-03-04T02:13:35.960Z,10.00
2019-03-04T02:14:14.058Z,10.00
2019-03-04T02:14:51.784Z,10.00
2019-03-04T02:15:29.634Z,10.00
2019-03-04T02:16:07.595Z,10.00
2019-03-04T02:16:45.252Z,10.00
2019-03-04T02:17:22.989Z,10.00
2019-03-04T02:18:00.670Z,10.00
2019-03-04T02:18:38.487Z,10.00
2019-03-04T02:19:16.649Z,10.00
2019-03-04T02:19:54.432Z,10.00
2019-03-04T02:20:32.432Z,10.00
2019-03-04T02:21:10.289Z,10.00
2019-03-04T02:21:47.744Z,10.00
2019-03-04T02:22:25.860Z,10.00
2019-03-04T02:23:03.356Z,10.00
2019-03-04T02:23:41.916Z,10.00
2019-03-04T02:24:23.786Z,10.00
2019-03-04T02:25:01.716Z,10.00
2019-03-04T02:26:08.174Z,10.00
2019-03-04T02:26:46.184Z,10.00
2019-03-04T02:27:23.679Z,10.00
2019-03-04T02:28:01.196Z,9.90
2019-03-04T02:28:38.936Z,9.90
2019-03-04T02:29:16.678Z,9.90
2019-03-04T02:29:54.397Z,9.90
2019-03-04T02:30:31.853Z,9.90
2019-03-04T02:31:09.952Z,9.90
2019-03-04T02:31:47.177Z,9.90
2019-03-04T02:32:25.199Z,9.90
2019-03-04T02:33:03.175Z,9.90
2019-03-04T02:33:41.245Z,9.90
2019-03-04T02:34:19.464Z,9.80
2019-03-04T02:34:57.254Z,9.80
2019-03-04T02:35:35.033Z,9.80
2019-03-04T02:36:12.848Z,9.80
2019-03-04T02:36:50.405Z,9.80
2019-03-04T02:37:27.521Z,9.80
2019-03-04T02:38:05.460Z,9.80
2019-03-04T02:38:43.070Z,9.80
2019-03-04T02:39:21.068Z,9.80
2019-03-04T02:39:58.308Z,9.80
2019-03-04T02:40:35.681Z,9.80
2019-03-04T02:41:13.160Z,9.90
2019-03-04T02:41:50.947Z,9.90
2019-03-04T02:42:28.083Z,9.90
2019-03-04T02:43:05.613Z,9.90
2019-03-04T02:43:43.316Z,9.90
2019-03-04T02:44:20.456Z,9.90
2019-03-04T02:44:57.934Z,10.00
2019-03-04T02:45:35.164Z,10.00
2019-03-04T02:46:12.377Z,10.10
2019-03-04T02:46:49.769Z,10.10
2019-03-04T02:47:27.883Z,10.10
2019-03-04T02:48:05.772Z,10.10
2019-03-04T02:48:43.506Z,10.10
2019-03-04T02:49:21.161Z,10.10
2019-03-04T02:49:58.719Z,10.10
2019-03-04T02:50:35.953Z,10.20
2019-03-04T02:51:13.229Z,10.20
2019-03-04T02:51:51.235Z,10.20
2019-03-04T02:52:28.645Z,10.20
2019-03-04T02:53:06.747Z,10.20
2019-03-04T02:53:44.465Z,10.20
2019-03-04T02:54:22.279Z,10.20
2019-03-04T02:55:00.048Z,10.20
2019-03-04T02:55:38.264Z,10.20
2019-03-04T02:56:16.169Z,10.20
2019-03-04T02:56:53.712Z,10.20
2019-03-04T02:57:31.492Z,10.20
2019-03-04T02:58:08.909Z,10.20
2019-03-04T02:58:46.546Z,10.20
2019-03-04T02:59:23.959Z,10.20
2019-03-04T03:00:01.648Z,10.20
2019-03-04T03:00:39.167Z,10.20
2019-03-04T03:01:16.381Z,10.20
2019-03-04T03:01:53.976Z,10.20
2019-03-04T03:02:31.774Z,10.20
2019-03-04T03:03:09.576Z,10.20
2019-03-04T03:03:47.063Z,10.20
2019-03-04T03:04:24.852Z,10.20
2019-03-04T03:05:02.311Z,10.10
2019-03-04T03:05:39.649Z,10.10
2019-03-04T03:06:17.024Z,10.10
2019-03-04T03:06:54.806Z,10.10
2019-03-04T03:07:32.582Z,10.10
2019-03-04T03:08:10.438Z,10.10
2019-03-04T03:08:47.930Z,10.00
2019-03-04T03:09:25.946Z,10.00
2019-03-04T03:10:06.326Z,10.00
2019-03-04T03:10:43.910Z,9.90
2019-03-04T03:11:21.256Z,9.90
2019-03-04T03:11:59.117Z,9.90
2019-03-04T03:12:36.849Z,9.80
2019-03-04T03:13:14.035Z,9.80
2019-03-04T03:13:51.805Z,9.80
2019-03-04T03:14:29.560Z,9.70
2019-03-04T03:15:07.273Z,9.70
2019-03-04T03:15:44.052Z,9.70
2019-03-04T03:16:21.697Z,9.70
2019-03-04T03:16:59.681Z,9.70
2019-03-04T03:17:37.844Z,9.60
2019-03-04T03:18:15.280Z,9.60
2019-03-04T03:18:52.865Z,9.60
2019-03-04T03:19:30.256Z,9.60
2019-03-04T03:20:09.434Z,9.50
2019-03-04T03:20:46.507Z,9.50
2019-03-04T03:21:23.604Z,9.50
2019-03-04T03:22:01.057Z,9.50
2019-03-04T03:22:39.209Z,9.50
2019-03-04T03:23:16.724Z,9.50
2019-03-04T03:23:54.116Z,9.40
2019-03-04T03:24:30.887Z,9.40
2019-03-04T03:25:09.042Z,9.40
2019-03-04T03:25:46.922Z,9.40
2019-03-04T03:26:24.469Z,9.40
2019-03-04T03:27:02.628Z,9.40
2019-03-04T03:27:40.339Z,9.40
2019-03-04T03:28:17.175Z,9.40
2019-03-04T03:28:54.377Z,9.30
2019-03-04T03:29:31.926Z,9.30
2019-03-04T03:30:11.062Z,9.30
2019-03-04T03:30:48.659Z,9.30
2019-03-04T03:31:26.034Z,9.30
2019-03-04T03:32:03.733Z,9.30
2019-03-04T03:32:40.694Z,9.30
2019-03-04T03:33:18.666Z,9.30
2019-03-04T03:33:56.356Z,9.30
2019-03-04T03:34:33.844Z,9.30
2019-03-04T03:35:11.613Z,9.30
2019-03-04T03:35:49.576Z,9.30
2019-03-04T03:36:26.344Z,9.30
2019-03-04T03:37:04.156Z,9.20
2019-03-04T03:37:41.143Z,9.20
2019-03-04T03:38:19.204Z,9.20
2019-03-04T03:38:56.700Z,9.20
2019-03-04T03:39:34.051Z,9.20
2019-03-04T03:40:12.136Z,9.20
2019-03-04T03:40:49.428Z,9.20
2019-03-04T03:41:27.508Z,9.20
2019-03-04T03:42:05.316Z,9.20
2019-03-04T03:42:43.354Z,9.10
2019-03-04T03:43:21.156Z,9.10
2019-03-04T03:43:58.819Z,9.10
2019-03-04T03:44:36.740Z,9.10
2019-03-04T03:45:14.985Z,9.10
2019-03-04T03:45:52.167Z,9.10
2019-03-04T03:46:30.118Z,9.10
2019-03-04T03:47:07.577Z,9.10
2019-03-04T03:47:45.053Z,9.10
2019-03-04T03:48:24.005Z,9.00
2019-03-04T03:49:02.057Z,9.10
2019-03-04T03:49:39.888Z,9.00
2019-03-04T03:50:17.859Z,9.00
2019-03-04T03:50:55.267Z,9.00
2019-03-04T03:51:33.329Z,9.00
2019-03-04T03:52:10.777Z,9.00
2019-03-04T03:52:48.609Z,9.00
2019-03-04T03:53:25.884Z,9.00
2019-03-04T03:54:03.524Z,9.00
2019-03-04T03:54:41.313Z,8.90
2019-03-04T03:55:19.083Z,8.90
2019-03-04T03:55:56.934Z,9.00
2019-03-04T03:56:35.052Z,8.90
2019-03-04T03:57:12.098Z,8.90
2019-03-04T03:57:50.073Z,8.90
2019-03-04T03:58:27.520Z,8.90
2019-03-04T03:59:05.029Z,8.90
2019-03-04T03:59:42.757Z,8.90
2019-03-04T04:00:20.832Z,8.90
2019-03-04T04:00:58.587Z,8.90
2019-03-04T04:01:36.621Z,8.90
2019-03-04T04:02:14.508Z,8.90
2019-03-04T04:02:52.064Z,8.90
2019-03-04T04:03:29.549Z,8.80
2019-03-04T04:04:06.882Z,8.80
2019-03-04T04:04:44.613Z,8.80
2019-03-04T04:05:22.273Z,8.80
2019-03-04T04:06:00.405Z,8.80
2019-03-04T04:06:37.596Z,8.80
2019-03-04T04:07:15.227Z,8.80
2019-03-04T04:07:53.230Z,8.80
2019-03-04T04:08:31.320Z,8.90
2019-03-04T04:09:09.106Z,8.90
2019-03-04T04:09:47.122Z,8.90
2019-03-04T04:10:25.302Z,8.90
2019-03-04T04:11:03.042Z,8.90
2019-03-04T04:11:40.518Z,8.90
2019-03-04T04:12:18.538Z,8.90
2019-03-04T04:12:56.501Z,8.90
2019-03-04T04:13:34.539Z,8.90
2019-03-04T04:14:11.688Z,8.90
2019-03-04T04:14:49.303Z,8.90
2019-03-04T04:15:26.809Z,8.90
2019-03-04T04:16:04.201Z,9.00
2019-03-04T04:16:41.464Z,9.00
2019-03-04T04:17:19.599Z,9.00
2019-03-04T04:17:57.045Z,9.00
2019-03-04T04:18:34.742Z,9.00
2019-03-04T04:19:12.591Z,9.00
2019-03-04T04:19:52.849Z,9.00
2019-03-04T04:20:28.864Z,9.00
2019-03-04T04:21:07.511Z,9.10
2019-03-04T04:21:44.778Z,9.10
2019-03-04T04:22:22.372Z,9.10
2019-03-04T04:22:59.776Z,9.10
2019-03-04T04:23:36.591Z,9.10
2019-03-04T04:24:14.313Z,9.10
2019-03-04T04:24:51.868Z,9.10
2019-03-04T04:25:30.689Z,9.10
2019-03-04T04:26:21.269Z,9.10
2019-03-04T04:26:58.949Z,9.10
2019-03-04T04:27:36.338Z,9.00
2019-03-04T04:28:13.805Z,9.10
2019-03-04T04:28:56.759Z,9.10
2019-03-04T04:29:36.663Z,9.10
2019-03-04T04:30:16.510Z,9.10
2019-03-04T04:31:13.113Z,9.10
2019-03-04T04:31:50.891Z,9.00
2019-03-04T04:32:28.273Z,9.00
2019-03-04T04:33:05.997Z,9.00
2019-03-04T04:33:43.183Z,9.00
2019-03-04T04:34:21.021Z,9.00
2019-03-04T04:34:58.080Z,9.00
2019-03-04T04:35:35.482Z,9.00
2019-03-04T04:36:12.875Z,9.00
2019-03-04T04:36:50.382Z,9.00
2019-03-04T04:37:27.899Z,9.00
2019-03-04T04:38:05.577Z,9.00
2019-03-04T04:38:42.884Z,9.00
2019-03-04T04:39:20.971Z,9.00
2019-03-04T04:39:58.653Z,9.00
2019-03-04T04:40:36.354Z,9.00
2019-03-04T04:41:13.514Z,9.00
2019-03-04T04:41:50.933Z,9.00
2019-03-04T04:42:28.361Z,9.00
2019-03-04T04:43:05.649Z,9.00
2019-03-04T04:43:43.395Z,9.00
2019-03-04T04:44:21.272Z,9.00
2019-03-04T04:44:59.073Z,9.00
2019-03-04T04:45:36.577Z,9.00
2019-03-04T04:46:14.440Z,9.00
2019-03-04T04:46:59.595Z,9.00
2019-03-04T04:47:37.384Z,9.00
2019-03-04T04:48:15.377Z,9.00
2019-03-04T04:48:52.877Z,9.10
2019-03-04T04:49:32.111Z,9.10
2019-03-04T04:50:11.009Z,9.10
2019-03-04T04:50:48.953Z,9.10
2019-03-04T04:51:26.793Z,9.00
2019-03-04T04:52:04.243Z,9.10
2019-03-04T04:52:41.817Z,9.10
2019-03-04T04:53:19.708Z,9.10
2019-03-04T04:53:57.463Z,9.10
2019-03-04T04:54:35.282Z,9.10
2019-03-04T04:55:13.109Z,9.10
2019-03-04T04:55:53.515Z,9.10
2019-03-04T04:56:30.515Z,9.10
2019-03-04T04:57:08.301Z,9.10
2019-03-04T04:57:46.325Z,9.10
2019-03-04T04:58:24.074Z,9.10
2019-03-04T04:59:01.139Z,9.10
2019-03-04T04:59:38.779Z,9.10
2019-03-04T05:00:16.787Z,9.10
2019-03-04T05:00:54.309Z,9.10
2019-03-04T05:01:32.077Z,9.00
2019-03-04T05:02:09.840Z,9.00
2019-03-04T05:02:47.707Z,9.00
2019-03-04T05:03:25.700Z,9.00
2019-03-04T05:04:03.631Z,9.00
2019-03-04T05:04:41.138Z,9.00
2019-03-04T05:05:18.974Z,9.00
2019-03-04T05:05:56.711Z,9.00
2019-03-04T05:06:34.660Z,8.90
2019-03-04T05:07:12.872Z,8.90
2019-03-04T05:07:50.856Z,8.90
2019-03-04T05:08:28.001Z,8.90
2019-03-04T05:09:07.335Z,8.90
2019-03-04T05:09:45.022Z,8.90
2019-03-04T05:10:22.597Z,8.90
2019-03-04T05:11:00.401Z,8.90
2019-03-04T05:11:38.397Z,8.80
2019-03-04T05:12:16.137Z,8.80
2019-03-04T05:12:54.048Z,8.80
2019-03-04T05:13:32.013Z,8.80
2019-03-04T05:14:10.245Z,8.80
2019-03-04T05:14:47.710Z,8.80
2019-03-04T05:15:25.524Z,8.80
2019-03-04T05:16:02.998Z,8.80
2019-03-04T05:16:59.731Z,8.80
2019-03-04T05:17:37.185Z,8.80
2019-03-04T05:18:14.611Z,8.80
2019-03-04T05:18:52.471Z,8.80
2019-03-04T05:19:29.825Z,8.70
2019-03-04T05:20:10.301Z,8.80
2019-03-04T05:20:47.993Z,8.70
2019-03-04T05:21:25.749Z,8.70
2019-03-04T05:22:03.529Z,8.70
2019-03-04T05:22:41.133Z,8.70
2019-03-04T05:23:19.231Z,8.70
2019-03-04T05:23:57.007Z,8.70
2019-03-04T05:24:34.790Z,8.70
2019-03-04T05:25:13.180Z,8.70
2019-03-04T05:25:50.067Z,8.70
2019-03-04T05:26:27.512Z,8.70
2019-03-04T05:27:04.612Z,8.70
2019-03-04T05:27:42.647Z,8.70
2019-03-04T05:28:20.178Z,8.70
2019-03-04T05:28:58.377Z,8.70
2019-03-04T05:29:36.335Z,8.70
2019-03-04T05:30:16.099Z,8.70
2019-03-04T05:30:53.226Z,8.70
2019-03-04T05:31:31.363Z,8.70
2019-03-04T05:32:08.130Z,8.70
2019-03-04T05:32:46.121Z,8.70
2019-03-04T05:33:23.177Z,8.70
2019-03-04T05:34:00.537Z,8.70
2019-03-04T05:34:37.899Z,8.70
2019-03-04T05:35:15.727Z,8.70
2019-03-04T05:35:53.509Z,8.70
2019-03-04T05:36:30.483Z,8.70
2019-03-04T05:37:08.340Z,8.70
2019-03-04T05:37:46.365Z,8.70
2019-03-04T05:38:24.127Z,8.80
2019-03-04T05:39:01.286Z,8.80
2019-03-04T05:39:39.018Z,8.80
2019-03-04T05:40:17.339Z,8.80
2019-03-04T05:40:55.306Z,8.80
2019-03-04T05:41:32.990Z,8.80
2019-03-04T05:42:11.088Z,8.80
2019-03-04T05:42:48.725Z,8.80
2019-03-04T05:43:26.530Z,8.80
2019-03-04T05:44:09.651Z,8.90
2019-03-04T05:44:47.670Z,8.90
2019-03-04T05:45:25.899Z,8.90
2019-03-04T05:46:03.223Z,8.90
2019-03-04T05:46:41.015Z,8.90
2019-03-04T05:47:18.367Z,8.90
2019-03-04T05:47:56.298Z,8.90
2019-03-04T05:48:34.103Z,9.00
2019-03-04T05:49:11.481Z,9.00
2019-03-04T05:49:49.208Z,9.00
2019-03-04T05:50:26.865Z,9.00
2019-03-04T05:51:05.065Z,9.00
2019-03-04T05:51:42.844Z,9.00
2019-03-04T05:52:20.242Z,9.00
2019-03-04T05:52:57.796Z,9.00
2019-03-04T05:53:54.627Z,9.10
2019-03-04T05:54:32.341Z,9.10
2019-03-04T05:55:11.863Z,9.10
2019-03-04T05:55:49.919Z,9.10
2019-03-04T05:56:27.949Z,9.10
2019-03-04T05:57:08.817Z,9.10
2019-03-04T05:57:46.515Z,9.10
2019-03-04T05:58:24.220Z,9.10
2019-03-04T05:59:02.380Z,9.10
2019-03-04T05:59:39.488Z,9.10
2019-03-04T06:00:18.633Z,9.20
2019-03-04T06:01:17.532Z,9.10
2019-03-04T06:02:03.127Z,9.20
2019-03-04T06:02:41.016Z,9.20
2019-03-04T06:03:18.682Z,9.20
2019-03-04T06:03:57.867Z,9.20
2019-03-04T06:04:35.189Z,9.20
2019-03-04T06:05:13.673Z,9.20
2019-03-04T06:05:51.433Z,9.20
2019-03-04T06:07:02.772Z,9.20
2019-03-04T06:07:44.177Z,9.20
2019-03-04T06:08:21.945Z,9.20
2019-03-04T06:09:00.041Z,9.20
2019-03-04T06:09:37.821Z,9.20
2019-03-04T06:10:16.125Z,9.20
2019-03-04T06:10:53.589Z,9.20
2019-03-04T06:11:31.349Z,9.20
2019-03-04T06:12:09.532Z,9.20
2019-03-04T06:12:47.229Z,9.20
2019-03-04T06:13:25.079Z,9.20
2019-03-04T06:14:02.372Z,9.30
2019-03-04T06:14:39.919Z,9.20
2019-03-04T06:15:18.521Z,9.30
2019-03-04T06:15:55.924Z,9.30
2019-03-04T06:16:33.457Z,9.30
2019-03-04T06:17:11.477Z,9.30
2019-03-04T06:17:49.048Z,9.30
2019-03-04T06:18:26.590Z,9.30
2019-03-04T06:19:04.662Z,9.30
2019-03-04T06:19:44.007Z,9.30
2019-03-04T06:20:22.137Z,9.30
2019-03-04T06:21:00.460Z,9.30
2019-03-04T06:21:38.227Z,9.30
2019-03-04T06:22:15.722Z,9.30
2019-03-04T06:22:53.310Z,9.30
2019-03-04T06:23:30.261Z,9.30
2019-03-04T06:24:08.215Z,9.30
2019-03-04T06:24:45.271Z,9.30
2019-03-04T06:25:27.329Z,9.30
2019-03-04T06:26:04.779Z,9.30
2019-03-04T06:26:42.475Z,9.30
2019-03-04T06:27:19.536Z,9.40
2019-03-04T06:27:57.016Z,9.40
2019-03-04T06:28:34.504Z,9.30
2019-03-04T06:29:11.652Z,9.40
2019-03-04T06:29:49.686Z,9.40
2019-03-04T06:30:27.713Z,9.30
2019-03-04T06:31:05.372Z,9.30
2019-03-04T06:31:42.192Z,9.30
2019-03-04T06:32:19.945Z,9.30
2019-03-04T06:32:57.672Z,9.30
2019-03-04T06:33:35.444Z,9.30
2019-03-04T06:34:12.943Z,9.30
2019-03-04T06:34:50.098Z,9.30
2019-03-04T06:35:27.983Z,9.30
2019-03-04T06:36:05.946Z,9.30
2019-03-04T06:36:43.295Z,9.30
2019-03-04T06:37:21.136Z,9.30
2019-03-04T06:37:59.337Z,9.30
2019-03-04T06:38:36.519Z,9.30
2019-03-04T06:39:13.993Z,9.30
2019-03-04T06:39:51.152Z,9.30
2019-03-04T06:40:29.347Z,9.30
2019-03-04T06:41:07.249Z,9.30
2019-03-04T06:41:44.829Z,9.30
2019-03-04T06:42:22.843Z,9.30
2019-03-04T06:43:00.539Z,9.30
2019-03-04T06:43:38.017Z,9.30
2019-03-04T06:44:15.856Z,9.30
2019-03-04T06:44:53.300Z,9.40
2019-03-04T06:45:30.409Z,9.40
2019-03-04T06:46:07.883Z,9.40
2019-03-04T06:46:45.631Z,9.50
2019-03-04T06:47:23.752Z,9.50
2019-03-04T06:48:01.963Z,9.60
2019-03-04T06:48:40.082Z,9.60
2019-03-04T06:49:37.106Z,9.70
2019-03-04T06:50:52.388Z,9.70
2019-03-04T06:51:44.027Z,9.80
2019-03-04T06:52:21.988Z,9.90
2019-03-04T06:53:00.317Z,10.00
2019-03-04T06:53:58.387Z,10.10
2019-03-04T06:55:35.404Z,10.10
2019-03-04T06:56:35.713Z,10.10
2019-03-04T06:57:28.226Z,10.20
2019-03-04T06:57:59.489Z,10.20
2019-03-04T06:58:37.806Z,10.20
2019-03-04T06:59:32.919Z,10.20
2019-03-04T07:00:43.021Z,10.20
2019-03-04T07:01:25.364Z,10.20
2019-03-04T07:02:07.423Z,10.20
2019-03-04T07:02:44.631Z,10.20
2019-03-04T07:03:58.299Z,10.20
2019-03-04T07:04:59.477Z,10.20
2019-03-04T07:05:51.146Z,10.10
2019-03-04T07:06:28.772Z,10.10
2019-03-04T07:07:06.604Z,10.10
2019-03-04T07:07:44.768Z,10.10
2019-03-04T07:09:10.311Z,10.10
2019-03-04T07:09:47.480Z,10.10
2019-03-04T07:10:25.058Z,10.00
2019-03-04T07:11:02.543Z,10.00
2019-03-04T07:11:41.350Z,10.00
2019-03-04T07:12:19.414Z,10.00
2019-03-04T07:12:57.475Z,10.00
2019-03-04T07:13:34.912Z,10.00
2019-03-04T07:14:13.115Z,10.00
2019-03-04T07:14:50.593Z,10.00
2019-03-04T07:15:29.424Z,10.00
2019-03-04T07:16:07.632Z,10.10
2019-03-04T07:16:46.488Z,10.10
2019-03-04T07:17:25.936Z,10.10
2019-03-04T07:18:03.444Z,10.10
2019-03-04T07:18:41.307Z,10.10
2019-03-04T07:19:20.910Z,10.10
2019-03-04T07:20:08.516Z,10.10
2019-03-04T07:20:45.706Z,10.10
2019-03-04T07:21:23.686Z,10.20
2019-03-04T07:22:01.586Z,10.20
2019-03-04T07:22:38.668Z,10.20
2019-03-04T07:23:15.772Z,10.20
2019-03-04T07:23:53.778Z,10.20
2019-03-04T07:24:31.580Z,10.20
2019-03-04T07:25:09.375Z,10.20
2019-03-04T07:25:46.564Z,10.20
2019-03-04T07:26:24.420Z,10.30
2019-03-04T07:27:02.541Z,10.30
2019-03-04T07:27:40.360Z,10.30
2019-03-04T07:28:18.041Z,10.30
2019-03-04T07:28:55.907Z,10.30
2019-03-04T07:29:33.700Z,10.30
2019-03-04T07:30:12.886Z,10.30
2019-03-04T07:30:50.077Z,10.30
2019-03-04T07:31:27.901Z,10.30
2019-03-04T07:32:05.561Z,10.40
2019-03-04T07:32:43.247Z,10.40
2019-03-04T07:33:21.016Z,10.40
2019-03-04T07:33:58.727Z,10.40
2019-03-04T07:34:36.561Z,10.40
2019-03-04T07:35:14.515Z,10.40
2019-03-04T07:35:52.292Z,10.50
2019-03-04T07:36:30.000Z,10.50
2019-03-04T07:37:07.359Z,10.50
2019-03-04T07:37:44.496Z,10.50
2019-03-04T07:38:53.341Z,10.50
2019-03-04T07:39:30.780Z,10.50
2019-03-04T07:40:09.832Z,10.60
2019-03-04T07:40:47.843Z,10.60
2019-03-04T07:41:26.291Z,10.60
2019-03-04T07:42:03.577Z,10.60
2019-03-04T07:42:41.368Z,10.60
2019-03-04T07:43:19.297Z,10.60
2019-03-04T07:43:56.877Z,10.70
2019-03-04T07:44:34.417Z,10.70
2019-03-04T07:45:12.783Z,10.70
2019-03-04T07:45:50.228Z,10.70
2019-03-04T07:46:28.118Z,10.70
2019-03-04T07:47:06.291Z,10.70
2019-03-04T07:47:44.338Z,10.80
2019-03-04T07:48:22.030Z,10.80
2019-03-04T07:48:59.758Z,10.80
2019-03-04T07:49:37.357Z,10.80
2019-03-04T07:50:14.562Z,10.80
2019-03-04T07:50:52.336Z,10.90
2019-03-04T07:51:30.052Z,10.90
2019-03-04T07:52:07.160Z,10.90
2019-03-04T07:52:44.727Z,10.90
2019-03-04T07:53:22.513Z,11.00
2019-03-04T07:54:00.136Z,11.00
2019-03-04T07:54:37.884Z,11.00
2019-03-04T07:55:15.544Z,11.00
2019-03-04T07:55:53.292Z,11.10
2019-03-04T07:56:30.804Z,11.10
2019-03-04T07:57:07.873Z,11.10
2019-03-04T07:57:45.017Z,11.10
2019-03-04T07:58:22.680Z,11.10
2019-03-04T07:59:00.202Z,11.10
2019-03-04T07:59:37.708Z,11.20
2019-03-04T08:00:15.267Z,11.20
2019-03-04T08:00:53.128Z,11.20
2019-03-04T08:01:30.863Z,11.20
2019-03-04T08:02:08.823Z,11.20
2019-03-04T08:02:46.795Z,11.20
2019-03-04T08:03:24.639Z,11.20
2019-03-04T08:04:02.491Z,11.20
2019-03-04T08:04:40.390Z,11.20
2019-03-04T08:05:17.860Z,11.20
2019-03-04T08:05:57.653Z,11.20
2019-03-04T08:06:34.561Z,11.30
2019-03-04T08:07:36.428Z,11.30
2019-03-04T08:08:14.037Z,11.30
2019-03-04T08:09:47.420Z,11.30
2019-03-04T08:11:07.752Z,11.30
2019-03-04T08:12:31.820Z,11.40
2019-03-04T08:13:16.278Z,11.40
2019-03-04T08:13:57.979Z,11.50
2019-03-04T08:14:35.870Z,11.50
2019-03-04T08:15:13.218Z,11.50
2019-03-04T08:15:52.744Z,11.60
2019-03-04T08:16:30.725Z,11.60
2019-03-04T08:17:08.551Z,11.60
2019-03-04T08:17:46.434Z,11.60
2019-03-04T08:18:24.012Z,11.60
2019-03-04T08:19:01.708Z,11.60
2019-03-04T08:19:39.483Z,11.70
2019-03-04T08:20:17.679Z,11.70
2019-03-04T08:20:55.643Z,11.70
2019-03-04T08:21:33.578Z,11.60
2019-03-04T08:22:11.485Z,11.60
2019-03-04T08:22:49.099Z,11.60
2019-03-04T08:23:26.582Z,11.60
2019-03-04T08:24:03.936Z,11.50
2019-03-04T08:24:41.613Z,11.50
2019-03-04T08:25:19.218Z,11.50
2019-03-04T08:25:56.392Z,11.50
2019-03-04T08:26:33.870Z,11.50
2019-03-04T08:27:11.041Z,11.50
2019-03-04T08:27:48.208Z,11.50
2019-03-04T08:28:25.280Z,11.50